Terminal Aerodrome Forecast
Issued by NWS

Home | Current Version | Previous Version | Text Only | Print | Product List | Glossary Off
Versions: 1 2 3 4 5 6 7 8 9 10 11 12 13 14 15 16 17 18 19 20 21 22 23 24 25 26 27 28 29 30 31

000
FTUS43 KLOT 281952 AAA
TAFDPA
TAF AMD
KDPA 281952Z 2820/2918 21008KT P6SM FEW050 BKN100
     FM290000 15008KT P6SM -SHRA OVC060
     FM290200 13010KT 4SM SHRA SCT025 OVC035
     FM290900 08009KT 3SM -SHRA BR SCT005 OVC008
     FM291400 09008KT P6SM SCT008 OVC015=

USA.gov is the U.S. government's official web portal to all federal, state and local government web resources and services.